Hovedside
METAR-TAF:

METAR-TAF

Lufthavner :

Lakselv lufthavn. Banak

Lakselv, Norge

breddegrad: 70-04N, lengdegrad: 024-59E, høyde over havet: 0 m

Gjeldene værobservasjon

Denne rapporten ble laget for 42 minutter siden, klokken 16:50 UTC
Vind 5 kt fra Sørøst, skiftende mellom Øst og Sør-sørøst
Temperatur 0°C
Luftfuktighet 80%
Trykk 1006 hPa
Sikt 10 km eller mer
Brutte skyer i en høyde av 3200 ft

METAR: ENNA 181650Z 14005KT 090V160 9999 BKN032 00/M03 Q1006 RMK WIND 1800FT 29015KT

Tid: 19:32 (17:32 UTC)

Varsel

Varsel gyldig fra 18. klokken 12 UTC til 19. klokken 12 UTC
Vind 8 kt fra Sør
Sikt 10 km eller mer
Få skyer i en høyde av 1000 ft
Spredte skyer i en høyde av 4000 ft
Sannsynlighet 40%
fra 18. klokken 15 UTC til 19. klokken 12 UTC
Vind 10 kt fra Nord-nordvest
Sikt: 4000 m
i en høyde av 1200 ft
lette snøbyger

TAF: ENNA 1812/1912 18008KT 9999 FEW010 SCT040 PROB40 1815/1912 33010KT 4000 -SHSN VV012

Værobservasjoner og værvarsel for over 4000 flyplasser (METAR- og TAF-rapporter).

Tilgjengelige stasjoner er representert av de røde og gule prikkene på kartet.

Hold musepekeren over prikken for å se navnet på stasjonen.

Klikk så for å se værobservasjoner og -varsler.

For å forandre kartet kan du klikke på den grønne knappen med svart kryss for å zoome inn, på den grønne knappen med strek for å zoome ut, eller på de grønne pilene for å se tilstøtende kart.


METAR-TAF: